createdAt,value
2023-02-07T00:00:48.554Z,10.93
2023-02-07T00:03:15.255Z,10.05
2023-02-07T00:05:41.968Z,10.15
2023-02-07T00:08:09.235Z,10.60
2023-02-07T00:10:36.542Z,11.32
2023-02-07T00:13:05.369Z,11.82
2023-02-07T00:15:32.921Z,13.23
2023-02-07T00:17:59.569Z,14.25
2023-02-07T00:20:26.223Z,13.10
2023-02-07T00:22:52.822Z,13.75
2023-02-07T00:25:19.485Z,14.70
2023-02-07T00:27:46.161Z,13.80
2023-02-07T00:30:13.208Z,14.43
2023-02-07T00:32:39.810Z,13.20
2023-02-07T00:35:07.007Z,13.82
2023-02-07T00:37:33.629Z,14.23
2023-02-07T00:40:00.251Z,14.93
2023-02-07T00:42:26.877Z,14.13
2023-02-07T00:44:53.517Z,13.13
2023-02-07T00:47:20.279Z,16.73
2023-02-07T00:49:47.039Z,14.20
2023-02-07T00:52:13.935Z,14.32
2023-02-07T00:54:40.580Z,16.55
2023-02-07T00:57:07.163Z,16.17
2023-02-07T00:59:33.757Z,16.65
2023-02-07T01:02:00.402Z,13.98
2023-02-07T01:04:27.027Z,15.02
2023-02-07T01:06:53.679Z,14.38
2023-02-07T01:09:20.247Z,16.35
2023-02-07T01:11:46.896Z,16.85
2023-02-07T01:14:13.603Z,15.43
2023-02-07T01:16:40.199Z,17.30
2023-02-07T01:19:09.480Z,16.88
2023-02-07T01:21:37.035Z,15.80
2023-02-07T01:24:03.974Z,15.90
2023-02-07T01:26:30.645Z,18.77
2023-02-07T01:28:57.580Z,16.60
2023-02-07T01:31:24.485Z,14.77
2023-02-07T01:33:56.209Z,15.27
2023-02-07T01:36:23.226Z,18.13
2023-02-07T01:38:53.191Z,19.30
2023-02-07T01:41:21.318Z,19.33
2023-02-07T01:44:28.400Z,15.73
2023-02-07T01:46:56.484Z,17.75
2023-02-07T01:49:32.155Z,18.90
2023-02-07T01:52:04.728Z,17.45
2023-02-07T01:54:33.525Z,13.05
2023-02-07T01:57:05.992Z,18.15
2023-02-07T01:59:35.599Z,16.17
2023-02-07T02:02:04.429Z,17.10
2023-02-07T02:04:31.218Z,20.23
2023-02-07T02:06:58.314Z,17.48
2023-02-07T02:09:27.052Z,18.98
2023-02-07T02:12:16.997Z,15.88
2023-02-07T02:14:55.258Z,19.38
2023-02-07T02:17:44.932Z,18.10
2023-02-07T02:20:30.175Z,20.55
2023-02-07T02:23:21.446Z,18.38
2023-02-07T02:26:25.744Z,19.90
2023-02-07T02:29:11.183Z,20.40
2023-02-07T02:32:05.691Z,19.00
2023-02-07T02:34:55.061Z,17.77
2023-02-07T02:37:25.375Z,19.90
2023-02-07T02:40:01.262Z,19.38
2023-02-07T02:42:35.388Z,19.98
2023-02-07T02:45:13.848Z,18.45
2023-02-07T02:47:44.574Z,20.10
2023-02-07T02:50:18.337Z,16.38
2023-02-07T02:52:50.894Z,19.58
2023-02-07T02:55:22.436Z,20.73
2023-02-07T02:58:13.993Z,20.05
2023-02-07T03:01:21.221Z,18.75
2023-02-07T03:04:07.766Z,19.67
2023-02-07T03:07:10.676Z,19.75
2023-02-07T03:10:05.048Z,18.10
2023-02-07T03:12:41.958Z,17.52
2023-02-07T03:15:41.094Z,19.55
2023-02-07T03:18:15.428Z,17.38
2023-02-07T03:20:51.932Z,19.60
2023-02-07T03:23:21.052Z,20.23
2023-02-07T03:25:50.332Z,18.33
2023-02-07T03:28:20.283Z,18.33
2023-02-07T03:30:50.640Z,19.42
2023-02-07T03:33:19.163Z,17.63
2023-02-07T03:36:06.174Z,17.98
2023-02-07T03:38:33.042Z,24.02
2023-02-07T03:41:07.025Z,22.23
2023-02-07T03:43:34.911Z,21.80
2023-02-07T03:46:01.727Z,21.25
2023-02-07T03:48:28.373Z,23.63
2023-02-07T03:50:55.000Z,22.10
2023-02-07T03:53:21.890Z,21.83
2023-02-07T03:55:48.520Z,23.05
2023-02-07T03:58:15.111Z,21.77
2023-02-07T04:00:41.756Z,22.95
2023-02-07T04:03:08.412Z,21.10
2023-02-07T04:05:35.457Z,22.52
2023-02-07T04:08:02.300Z,18.92
2023-02-07T04:10:28.945Z,22.02
2023-02-07T04:12:55.533Z,23.08
2023-02-07T04:15:22.453Z,24.10
2023-02-07T04:17:49.061Z,26.08
2023-02-07T04:20:15.732Z,26.30
2023-02-07T04:22:42.414Z,22.17
2023-02-07T04:25:09.119Z,20.65
2023-02-07T04:27:35.717Z,22.27
2023-02-07T04:30:02.330Z,21.52
2023-02-07T04:32:28.949Z,23.73
2023-02-07T04:34:55.571Z,21.48
2023-02-07T04:37:22.191Z,20.75
2023-02-07T04:39:48.847Z,22.17
2023-02-07T04:42:15.508Z,21.77
2023-02-07T04:44:42.170Z,23.42
2023-02-07T04:47:08.830Z,20.63
2023-02-07T04:49:35.429Z,20.83
2023-02-07T04:52:02.290Z,23.75
2023-02-07T04:54:28.881Z,24.65
2023-02-07T04:56:55.862Z,20.90
2023-02-07T04:59:22.642Z,22.85
2023-02-07T05:01:49.294Z,22.27
2023-02-07T05:04:15.997Z,26.42
2023-02-07T05:06:43.205Z,21.10
2023-02-07T05:09:09.843Z,22.25
2023-02-07T05:11:36.554Z,24.20
2023-02-07T05:14:03.179Z,22.75
2023-02-07T05:16:29.922Z,25.55
2023-02-07T05:18:56.531Z,25.10
2023-02-07T05:21:23.137Z,25.27
2023-02-07T05:23:49.793Z,26.20
2023-02-07T05:26:17.313Z,23.25
2023-02-07T05:28:44.236Z,27.42
2023-02-07T05:31:10.927Z,26.33
2023-02-07T05:33:37.600Z,25.90
2023-02-07T05:36:05.053Z,22.75
2023-02-07T05:38:31.645Z,23.05
2023-02-07T05:40:58.256Z,25.23
2023-02-07T05:43:24.839Z,24.90
2023-02-07T05:45:51.557Z,26.60
2023-02-07T05:48:18.657Z,26.25
2023-02-07T05:50:45.270Z,28.13
2023-02-07T05:53:12.867Z,27.20
2023-02-07T05:55:39.869Z,24.67
2023-02-07T05:58:06.647Z,27.60
2023-02-07T06:00:33.586Z,25.38
2023-02-07T06:03:00.167Z,26.23
2023-02-07T06:05:31.496Z,27.10
2023-02-07T06:07:58.299Z,27.20
2023-02-07T06:10:24.905Z,27.88
2023-02-07T06:12:51.524Z,26.67
2023-02-07T06:15:18.220Z,25.65
2023-02-07T06:17:44.821Z,26.70
2023-02-07T06:20:11.868Z,25.88
2023-02-07T06:22:38.503Z,27.27
2023-02-07T06:25:05.460Z,29.23
2023-02-07T06:27:32.077Z,27.27
2023-02-07T06:29:58.762Z,24.20
2023-02-07T06:32:25.671Z,27.90
2023-02-07T06:34:52.464Z,31.17
2023-02-07T06:37:19.275Z,27.38
2023-02-07T06:39:45.859Z,25.13
2023-02-07T06:42:12.901Z,30.95
2023-02-07T06:44:39.506Z,25.83
2023-02-07T06:47:06.195Z,26.67
2023-02-07T06:49:32.766Z,27.63
2023-02-07T06:51:59.451Z,27.00
2023-02-07T06:54:26.145Z,28.88
2023-02-07T06:56:52.978Z,34.70
2023-02-07T06:59:19.696Z,29.30
2023-02-07T07:01:48.406Z,28.58
2023-02-07T07:04:16.010Z,29.70
2023-02-07T07:06:42.689Z,30.20
2023-02-07T07:09:09.279Z,29.85
2023-02-07T07:11:42.799Z,29.70
2023-02-07T07:16:36.838Z,29.23
2023-02-07T07:19:03.720Z,30.45
2023-02-07T07:21:30.339Z,29.58
2023-02-07T07:23:56.958Z,26.80
2023-02-07T07:26:24.136Z,26.13
2023-02-07T07:28:50.827Z,25.58
2023-02-07T07:31:17.528Z,26.70
2023-02-07T07:33:44.223Z,27.95
2023-02-07T07:36:10.857Z,26.70
2023-02-07T07:41:08.974Z,26.65
2023-02-07T07:43:35.641Z,28.15
2023-02-07T07:46:02.258Z,27.70
2023-02-07T07:48:29.041Z,29.15
2023-02-07T07:50:55.916Z,30.27
2023-02-07T07:53:22.567Z,24.90
2023-02-07T07:55:50.711Z,29.98
2023-02-07T07:58:17.897Z,28.65
2023-02-07T08:00:44.737Z,28.33
2023-02-07T08:03:12.672Z,25.08
2023-02-07T08:05:39.573Z,26.63
2023-02-07T08:08:06.802Z,28.13
2023-02-07T08:10:34.005Z,26.92
2023-02-07T08:13:00.692Z,27.45
2023-02-07T08:15:27.349Z,25.02
2023-02-07T08:17:53.945Z,26.67
2023-02-07T08:20:20.748Z,26.17
2023-02-07T08:22:47.398Z,26.20
2023-02-07T08:25:14.074Z,25.13
2023-02-07T08:27:40.688Z,27.58
2023-02-07T08:30:09.351Z,25.17
2023-02-07T08:32:36.068Z,26.02
2023-02-07T08:35:02.753Z,25.00
2023-02-07T08:37:29.392Z,22.83
2023-02-07T08:39:56.035Z,25.77
2023-02-07T08:42:22.945Z,24.67
2023-02-07T08:44:50.279Z,23.92
2023-02-07T08:47:18.024Z,21.02
2023-02-07T08:49:45.434Z,25.25
2023-02-07T08:52:12.737Z,24.25
2023-02-07T08:54:39.400Z,26.55
2023-02-07T08:57:06.278Z,22.75
2023-02-07T08:59:32.894Z,24.80
2023-02-07T09:01:59.559Z,25.50
2023-02-07T09:04:26.901Z,21.83
2023-02-07T09:06:53.657Z,22.55
2023-02-07T09:09:20.311Z,22.55
2023-02-07T09:11:46.997Z,20.98
2023-02-07T09:14:13.608Z,21.27
2023-02-07T09:16:40.673Z,21.17
2023-02-07T09:19:07.434Z,21.13
2023-02-07T09:21:34.161Z,19.35
2023-02-07T09:24:00.769Z,21.23
2023-02-07T09:26:27.464Z,18.63
2023-02-07T09:28:54.115Z,20.83
2023-02-07T09:31:21.871Z,18.70
2023-02-07T09:33:48.551Z,20.75
2023-02-07T09:36:26.551Z,22.52
2023-02-07T09:38:54.156Z,19.67
2023-02-07T09:41:42.157Z,21.20
2023-02-07T09:44:40.553Z,19.58
2023-02-07T09:47:11.760Z,21.20
2023-02-07T09:50:03.477Z,22.83
2023-02-07T09:52:35.752Z,19.52
2023-02-07T09:55:05.349Z,19.57
2023-02-07T09:57:38.130Z,21.25
2023-02-07T10:00:25.797Z,21.20
2023-02-07T10:03:03.970Z,21.60
2023-02-07T10:05:41.972Z,20.05
2023-02-07T10:08:15.711Z,20.17
2023-02-07T10:11:04.118Z,19.27
2023-02-07T10:13:55.336Z,19.30
2023-02-07T10:16:58.544Z,22.00
2023-02-07T10:19:44.522Z,21.60
2023-02-07T10:22:31.437Z,20.90
2023-02-07T10:25:27.155Z,22.13
2023-02-07T10:27:59.772Z,19.60
2023-02-07T10:30:35.995Z,20.23
2023-02-07T10:33:13.768Z,21.95
2023-02-07T10:35:40.553Z,19.75
2023-02-07T10:38:41.973Z,19.88
2023-02-07T10:41:22.478Z,19.92
2023-02-07T10:43:49.329Z,20.35
2023-02-07T10:46:20.497Z,21.33
2023-02-07T10:48:48.506Z,19.73
2023-02-07T10:51:35.620Z,17.25
2023-02-07T10:54:12.478Z,17.73
2023-02-07T10:57:01.748Z,18.25
2023-02-07T10:59:45.965Z,17.00
2023-02-07T11:02:33.481Z,19.92
2023-02-07T11:05:08.194Z,21.40
2023-02-07T11:07:46.295Z,20.65
2023-02-07T11:10:24.617Z,17.50
2023-02-07T11:12:56.977Z,18.70
2023-02-07T11:15:44.157Z,17.38
2023-02-07T11:18:37.527Z,20.52
2023-02-07T11:21:23.900Z,19.52
2023-02-07T11:23:52.129Z,16.20
2023-02-07T11:26:20.886Z,17.50
2023-02-07T11:28:52.141Z,17.15
2023-02-07T11:31:24.686Z,19.70
2023-02-07T11:33:51.503Z,18.08
2023-02-07T11:36:18.825Z,16.45
2023-02-07T11:38:53.919Z,16.13
2023-02-07T11:41:25.422Z,16.35
2023-02-07T11:43:55.586Z,17.67
2023-02-07T11:46:24.540Z,17.45
2023-02-07T11:48:54.991Z,15.32
2023-02-07T11:51:22.579Z,15.75
2023-02-07T11:53:55.500Z,15.27
2023-02-07T11:56:33.637Z,16.63
2023-02-07T11:59:05.837Z,18.75
2023-02-07T12:01:34.314Z,16.00
2023-02-07T12:04:09.008Z,15.88
2023-02-07T12:06:44.591Z,13.93
2023-02-07T12:09:33.445Z,19.10
2023-02-07T12:12:04.059Z,13.88
2023-02-07T12:14:41.786Z,15.05
2023-02-07T12:17:17.026Z,13.50
2023-02-07T12:20:00.117Z,13.45
2023-02-07T12:22:35.311Z,16.30
2023-02-07T12:25:14.128Z,12.98
2023-02-07T12:27:47.665Z,15.02
2023-02-07T12:33:31.413Z,12.48
2023-02-07T12:36:19.721Z,15.30
2023-02-07T12:39:03.820Z,14.57
2023-02-07T12:41:37.928Z,16.23
2023-02-07T12:44:20.763Z,11.88
2023-02-07T12:46:53.464Z,14.73
2023-02-07T12:49:35.958Z,12.53
2023-02-07T12:52:20.143Z,14.85
2023-02-07T12:55:01.834Z,13.18
2023-02-07T12:57:49.474Z,14.70
2023-02-07T13:00:25.158Z,14.77
2023-02-07T13:03:08.885Z,14.93
2023-02-07T13:06:06.177Z,14.63
2023-02-07T13:08:38.933Z,15.38
2023-02-07T13:11:37.131Z,14.20
2023-02-07T13:14:12.500Z,15.43
2023-02-07T13:16:52.134Z,14.45
2023-02-07T13:19:27.520Z,13.40
2023-02-07T13:22:01.030Z,13.98
2023-02-07T13:27:00.743Z,14.43
2023-02-07T13:29:32.131Z,14.63
2023-02-07T13:32:03.050Z,13.88
2023-02-07T13:34:41.824Z,13.10
2023-02-07T13:37:17.076Z,14.57
2023-02-07T13:40:06.127Z,14.52
2023-02-07T13:42:43.516Z,11.27
2023-02-07T13:45:30.600Z,14.00
2023-02-07T13:48:25.095Z,12.98
2023-02-07T13:50:51.666Z,12.27
2023-02-07T13:53:46.540Z,15.00
2023-02-07T13:56:34.975Z,14.02
2023-02-07T13:59:20.864Z,13.80
2023-02-07T14:01:51.478Z,11.88
2023-02-07T14:04:19.798Z,12.55
2023-02-07T14:07:00.353Z,12.75
2023-02-07T14:09:35.468Z,15.00
2023-02-07T14:12:06.456Z,14.95
2023-02-07T14:14:38.778Z,13.88
2023-02-07T14:17:27.932Z,14.50
2023-02-07T14:19:56.390Z,13.68
2023-02-07T14:22:49.297Z,13.82
2023-02-07T14:25:23.050Z,11.20
2023-02-07T14:27:52.675Z,13.02
2023-02-07T14:30:30.488Z,13.18
2023-02-07T14:33:19.353Z,10.48
2023-02-07T14:36:04.167Z,11.93
2023-02-07T14:38:41.068Z,10.88
2023-02-07T14:41:13.755Z,11.52
2023-02-07T14:44:07.393Z,12.57
2023-02-07T14:49:21.830Z,13.90
2023-02-07T14:51:51.731Z,15.15
2023-02-07T14:54:42.992Z,15.55
2023-02-07T14:57:36.876Z,14.15
2023-02-07T15:00:12.603Z,13.00
2023-02-07T15:03:05.148Z,13.90
2023-02-07T15:05:35.117Z,16.13
2023-02-07T15:08:16.545Z,13.85
2023-02-07T15:10:56.997Z,13.10
2023-02-07T15:13:26.723Z,15.68
2023-02-07T15:16:01.492Z,15.07
2023-02-07T15:18:33.251Z,13.20
2023-02-07T15:21:00.394Z,12.60
2023-02-07T15:23:30.365Z,13.43
2023-02-07T15:26:00.352Z,14.18
2023-02-07T15:28:29.280Z,13.07
2023-02-07T15:30:56.475Z,12.77
2023-02-07T15:33:24.887Z,12.55
2023-02-07T15:35:51.764Z,12.85
2023-02-07T15:38:27.973Z,13.10
2023-02-07T15:40:55.428Z,13.57
2023-02-07T15:43:35.012Z,14.10
2023-02-07T15:46:11.996Z,13.18
2023-02-07T15:48:50.873Z,15.60
2023-02-07T15:51:20.550Z,13.75
2023-02-07T15:53:54.386Z,15.40
2023-02-07T15:56:21.170Z,13.93
2023-02-07T15:58:49.173Z,16.10
2023-02-07T16:01:25.890Z,14.07
2023-02-07T16:03:55.561Z,13.60
2023-02-07T16:06:24.901Z,13.73
2023-02-07T16:08:57.293Z,13.50
2023-02-07T16:11:26.665Z,15.85
2023-02-07T16:14:02.549Z,15.75
2023-02-07T16:16:52.630Z,14.35
2023-02-07T16:19:26.274Z,21.88
2023-02-07T16:22:10.812Z,12.85
2023-02-07T16:24:40.843Z,15.70
2023-02-07T16:27:07.655Z,13.75
2023-02-07T16:29:36.187Z,16.08
2023-02-07T16:32:02.980Z,14.38
2023-02-07T16:34:29.637Z,19.80
2023-02-07T16:36:57.181Z,14.43
2023-02-07T16:39:24.308Z,16.45
2023-02-07T16:41:55.615Z,15.35
2023-02-07T16:44:24.686Z,17.27
2023-02-07T16:46:52.054Z,15.25
2023-02-07T16:49:23.710Z,19.23
2023-02-07T16:51:50.887Z,13.75
2023-02-07T16:54:17.820Z,17.42
2023-02-07T16:56:46.634Z,12.75
2023-02-07T16:59:20.407Z,16.92
2023-02-07T17:01:47.936Z,15.75
2023-02-07T17:04:14.898Z,17.73
2023-02-07T17:06:43.771Z,17.67
2023-02-07T17:09:36.668Z,18.60
2023-02-07T17:12:03.501Z,20.38
2023-02-07T17:14:30.130Z,20.55
2023-02-07T17:16:58.631Z,21.00
2023-02-07T17:19:27.853Z,20.80
2023-02-07T17:21:56.494Z,18.02
2023-02-07T17:24:23.103Z,18.70
2023-02-07T17:26:52.544Z,24.95
2023-02-07T17:29:19.611Z,19.30
2023-02-07T17:31:47.029Z,18.85
2023-02-07T17:34:13.712Z,18.48
2023-02-07T17:36:49.395Z,19.33
2023-02-07T17:39:18.185Z,22.95
2023-02-07T17:41:44.920Z,19.15
2023-02-07T17:44:11.531Z,17.98
2023-02-07T17:46:38.218Z,20.42
2023-02-07T17:49:06.192Z,19.83
2023-02-07T17:51:33.032Z,21.48
2023-02-07T17:53:59.667Z,23.52
2023-02-07T17:56:31.801Z,23.90
2023-02-07T17:59:05.183Z,27.25
2023-02-07T18:01:32.798Z,22.48
2023-02-07T18:03:59.466Z,22.35
2023-02-07T18:06:28.287Z,21.13
2023-02-07T18:08:57.375Z,22.08
2023-02-07T18:11:25.034Z,19.75
2023-02-07T18:13:51.630Z,18.83
2023-02-07T18:16:22.048Z,19.40
2023-02-07T18:18:49.924Z,17.45
2023-02-07T18:21:16.582Z,18.15
2023-02-07T18:23:43.269Z,21.98
2023-02-07T18:26:15.102Z,20.88
2023-02-07T18:28:43.678Z,20.60
2023-02-07T18:31:16.179Z,18.00
2023-02-07T18:33:42.949Z,19.38
2023-02-07T18:36:10.154Z,26.98
2023-02-07T18:38:37.524Z,29.85
2023-02-07T18:41:15.682Z,27.25
2023-02-07T18:43:42.822Z,29.35
2023-02-07T18:46:14.992Z,25.48
2023-02-07T18:48:41.760Z,26.27
2023-02-07T18:51:10.571Z,25.38
2023-02-07T18:53:37.850Z,22.20
2023-02-07T18:56:11.227Z,22.33
2023-02-07T18:58:38.503Z,21.15
2023-02-07T19:01:10.392Z,17.70
2023-02-07T19:03:38.512Z,19.33
2023-02-07T19:06:06.698Z,18.85
2023-02-07T19:08:33.382Z,17.95
2023-02-07T19:11:02.735Z,17.50
2023-02-07T19:13:30.009Z,19.67
2023-02-07T19:16:08.071Z,17.40
2023-02-07T19:18:35.024Z,19.17
2023-02-07T19:21:09.282Z,23.45
2023-02-07T19:23:36.457Z,22.02
2023-02-07T19:26:03.860Z,19.83
2023-02-07T19:28:31.203Z,20.67
2023-02-07T19:30:58.146Z,22.55
2023-02-07T19:33:24.981Z,24.23
2023-02-07T19:35:51.666Z,25.02
2023-02-07T19:38:18.268Z,25.50
2023-02-07T19:40:45.148Z,22.08
2023-02-07T19:43:12.655Z,19.95
2023-02-07T19:45:39.272Z,20.42
2023-02-07T19:48:06.005Z,22.08
2023-02-07T19:50:32.688Z,21.38
2023-02-07T19:52:59.282Z,21.13
2023-02-07T19:55:25.854Z,22.55
2023-02-07T19:57:53.021Z,20.42
2023-02-07T20:00:19.669Z,21.17
2023-02-07T20:02:46.283Z,22.67
2023-02-07T20:05:12.901Z,19.45
2023-02-07T20:07:39.537Z,24.35
2023-02-07T20:10:06.471Z,26.92
2023-02-07T20:12:33.099Z,25.33
2023-02-07T20:14:59.705Z,26.77
2023-02-07T20:17:26.322Z,22.42
2023-02-07T20:19:52.921Z,25.35
2023-02-07T20:22:19.493Z,23.00
2023-02-07T20:24:46.142Z,23.80
2023-02-07T20:27:12.844Z,21.15
2023-02-07T20:29:39.430Z,23.75
2023-02-07T20:32:06.112Z,23.10
2023-02-07T20:34:32.815Z,26.92
2023-02-07T20:36:59.620Z,23.67
2023-02-07T20:39:29.104Z,24.63
2023-02-07T20:41:55.701Z,26.67
2023-02-07T20:44:24.396Z,24.77
2023-02-07T20:46:51.545Z,28.25
2023-02-07T20:49:26.135Z,23.40
2023-02-07T20:51:54.118Z,25.27
2023-02-07T20:54:23.936Z,27.40
2023-02-07T20:56:52.010Z,24.73
2023-02-07T20:59:21.701Z,19.30
2023-02-07T21:01:48.926Z,22.70
2023-02-07T21:04:15.778Z,25.67
2023-02-07T21:06:42.740Z,26.33
2023-02-07T21:09:09.694Z,20.95
2023-02-07T21:11:37.438Z,22.30
2023-02-07T21:14:12.895Z,18.67
2023-02-07T21:16:39.788Z,22.00
2023-02-07T21:19:06.456Z,20.45
2023-02-07T21:21:33.109Z,23.52
2023-02-07T21:23:59.846Z,25.67
2023-02-07T21:26:27.287Z,24.15
2023-02-07T21:29:04.767Z,22.50
2023-02-07T21:31:34.149Z,26.50
2023-02-07T21:34:01.969Z,20.40
2023-02-07T21:36:31.020Z,21.75
2023-02-07T21:38:59.491Z,21.58
2023-02-07T21:41:27.586Z,20.83
2023-02-07T21:43:55.349Z,22.05
2023-02-07T21:46:24.936Z,20.63
2023-02-07T21:49:01.630Z,20.83
2023-02-07T21:51:30.632Z,22.13
2023-02-07T21:53:58.238Z,20.70
2023-02-07T21:56:27.568Z,23.48
2023-02-07T21:58:59.816Z,18.75
2023-02-07T22:01:27.929Z,18.27
2023-02-07T22:03:57.477Z,16.33
2023-02-07T22:06:24.718Z,18.13
2023-02-07T22:08:57.006Z,19.80
2023-02-07T22:11:26.304Z,18.98
2023-02-07T22:13:53.825Z,19.65
2023-02-07T22:16:22.256Z,17.80
2023-02-07T22:18:52.363Z,21.83
2023-02-07T22:21:24.627Z,18.40
2023-02-07T22:23:51.795Z,18.73
2023-02-07T22:26:19.016Z,20.10
2023-02-07T22:28:47.091Z,17.27
2023-02-07T22:31:16.578Z,18.50
2023-02-07T22:33:43.454Z,21.35
2023-02-07T22:36:15.001Z,20.60
2023-02-07T22:38:41.768Z,21.40
2023-02-07T22:41:09.236Z,23.15
2023-02-07T22:43:36.355Z,22.33
2023-02-07T22:46:04.859Z,19.60
2023-02-07T22:48:32.294Z,21.92
2023-02-07T22:51:00.124Z,21.02
2023-02-07T22:53:27.381Z,17.70
2023-02-07T22:55:54.027Z,21.95
2023-02-07T22:58:20.652Z,19.02
2023-02-07T23:00:47.270Z,18.73
2023-02-07T23:03:13.924Z,25.45
2023-02-07T23:05:40.533Z,22.77
2023-02-07T23:08:07.358Z,21.63
2023-02-07T23:10:34.076Z,22.77
2023-02-07T23:13:01.104Z,18.33
2023-02-07T23:15:28.246Z,21.40
2023-02-07T23:17:54.895Z,19.52
2023-02-07T23:20:21.524Z,18.45
2023-02-07T23:22:48.157Z,20.42
2023-02-07T23:25:18.256Z,22.60
2023-02-07T23:27:45.292Z,22.55
2023-02-07T23:30:13.856Z,19.23
2023-02-07T23:32:40.931Z,21.17
2023-02-07T23:35:07.941Z,23.20
2023-02-07T23:37:35.394Z,20.67
2023-02-07T23:40:02.151Z,17.92
2023-02-07T23:42:28.779Z,24.90
2023-02-07T23:44:55.400Z,17.73
2023-02-07T23:47:22.001Z,21.73
2023-02-07T23:49:48.607Z,18.85
2023-02-07T23:52:15.217Z,21.23
2023-02-07T23:54:41.809Z,22.23
2023-02-07T23:57:08.403Z,23.27
2023-02-07T23:59:35.091Z,24.80
